Forside
METAR-TAF:

METAR-TAF

Lufthavne :

Custer Airport

Monroe, Michigan, USA

Breddekreds: 41-56-24N, længdekreds: 083-26-05W, højde: 188 m

Aktuelle vejr

Denne rapport blev lavet for 17 minutter siden, kl. 13:16 UTC
Vind 4 kt fra nordøst
Temperatur 4°C
Fugtighed 93%
Tryk 1016 hPa
Sigt: 16.1 km
Overskyet i en højde af 1300 ft

METAR: KTTF 311316Z AUTO 04004KT 10SM OVC013 04/03 A3001 RMK AO2 T00420030

Tid: 09:33 (13:33 UTC)


TAF: fraværende

Vejrobservationer og prognoser fra mere end 4000 lufthavne (METAR og TAF).

De gule og røde prikker repræsenterer de meteorologiske stationer.

Flyt musen over at se navnet på stationen.

Så klik over at se vejr observationer og prognoser.

At skifte det kort: Klik på de grønne knapper med et sort kors for at zoome ind; på den grønne knap med en bindestreg for at zoome ud; eller på de grønne pile for tilstødende kort.


METAR-TAF: